sensor_id;sensor_type;location;lat;lon;timestamp;P1;durP1;ratioP1;P2;durP2;ratioP2
34982;SDS011;21187;50.976;13.720;2023-09-18T00:03:54;5.13;;;3.00;;
34982;SDS011;21187;50.976;13.720;2023-09-18T00:08:56;4.40;;;3.00;;
34982;SDS011;21187;50.976;13.720;2023-09-18T00:13:58;5.43;;;2.90;;
34982;SDS011;21187;50.976;13.720;2023-09-18T00:18:59;5.25;;;3.17;;
34982;SDS011;21187;50.976;13.720;2023-09-18T00:24:02;7.97;;;2.92;;
34982;SDS011;21187;50.976;13.720;2023-09-18T00:29:05;5.68;;;2.83;;
34982;SDS011;21187;50.976;13.720;2023-09-18T00:34:06;5.55;;;2.97;;
34982;SDS011;21187;50.976;13.720;2023-09-18T00:39:08;3.75;;;2.78;;
34982;SDS011;21187;50.976;13.720;2023-09-18T00:44:10;7.10;;;3.33;;
34982;SDS011;21187;50.976;13.720;2023-09-18T00:49:12;5.03;;;3.10;;
34982;SDS011;21187;50.976;13.720;2023-09-18T00:54:16;5.75;;;2.83;;
34982;SDS011;21187;50.976;13.720;2023-09-18T00:59:20;9.57;;;3.20;;
34982;SDS011;21187;50.976;13.720;2023-09-18T01:04:23;5.32;;;2.83;;
34982;SDS011;21187;50.976;13.720;2023-09-18T01:09:28;5.78;;;3.38;;
34982;SDS011;21187;50.976;13.720;2023-09-18T01:20:16;5.15;;;3.05;;
34982;SDS011;21187;50.976;13.720;2023-09-18T01:25:18;5.47;;;3.20;;
34982;SDS011;21187;50.976;13.720;2023-09-18T01:30:21;5.38;;;3.58;;
34982;SDS011;21187;50.976;13.720;2023-09-18T01:35:26;4.47;;;3.50;;
34982;SDS011;21187;50.976;13.720;2023-09-18T01:40:31;5.30;;;2.97;;
34982;SDS011;21187;50.976;13.720;2023-09-18T01:45:34;4.75;;;3.47;;
34982;SDS011;21187;50.976;13.720;2023-09-18T01:50:36;5.97;;;3.28;;
34982;SDS011;21187;50.976;13.720;2023-09-18T01:55:39;6.38;;;3.65;;
34982;SDS011;21187;50.976;13.720;2023-09-18T02:00:41;8.52;;;3.97;;
34982;SDS011;21187;50.976;13.720;2023-09-18T02:05:43;5.50;;;3.55;;
34982;SDS011;21187;50.976;13.720;2023-09-18T02:10:46;6.97;;;3.80;;
34982;SDS011;21187;50.976;13.720;2023-09-18T02:15:48;10.55;;;4.13;;
34982;SDS011;21187;50.976;13.720;2023-09-18T02:20:50;6.50;;;3.97;;
34982;SDS011;21187;50.976;13.720;2023-09-18T02:25:55;7.10;;;4.13;;
34982;SDS011;21187;50.976;13.720;2023-09-18T02:30:58;5.50;;;3.97;;
34982;SDS011;21187;50.976;13.720;2023-09-18T02:36:00;6.35;;;3.85;;
34982;SDS011;21187;50.976;13.720;2023-09-18T02:41:02;7.68;;;3.80;;
34982;SDS011;21187;50.976;13.720;2023-09-18T02:46:04;7.15;;;4.18;;
34982;SDS011;21187;50.976;13.720;2023-09-18T02:51:07;6.35;;;4.10;;
34982;SDS011;21187;50.976;13.720;2023-09-18T02:56:09;7.50;;;5.03;;
34982;SDS011;21187;50.976;13.720;2023-09-18T03:01:12;7.57;;;4.60;;
34982;SDS011;21187;50.976;13.720;2023-09-18T03:06:16;6.07;;;3.97;;
34982;SDS011;21187;50.976;13.720;2023-09-18T03:11:18;10.05;;;4.22;;
34982;SDS011;21187;50.976;13.720;2023-09-18T03:16:20;7.55;;;4.40;;
34982;SDS011;21187;50.976;13.720;2023-09-18T03:21:22;6.85;;;4.25;;
34982;SDS011;21187;50.976;13.720;2023-09-18T03:26:24;8.20;;;4.70;;
34982;SDS011;21187;50.976;13.720;2023-09-18T03:31:26;8.02;;;4.43;;
34982;SDS011;21187;50.976;13.720;2023-09-18T03:36:28;12.98;;;5.07;;
34982;SDS011;21187;50.976;13.720;2023-09-18T03:41:30;6.65;;;4.72;;
34982;SDS011;21187;50.976;13.720;2023-09-18T03:46:37;8.77;;;4.30;;
34982;SDS011;21187;50.976;13.720;2023-09-18T03:51:39;8.73;;;4.70;;
34982;SDS011;21187;50.976;13.720;2023-09-18T03:56:41;7.22;;;4.47;;
34982;SDS011;21187;50.976;13.720;2023-09-18T04:01:43;10.38;;;4.80;;
34982;SDS011;21187;50.976;13.720;2023-09-18T04:06:46;11.38;;;4.75;;
34982;SDS011;21187;50.976;13.720;2023-09-18T04:11:48;9.00;;;4.50;;
34982;SDS011;21187;50.976;13.720;2023-09-18T04:16:50;6.22;;;4.55;;
34982;SDS011;21187;50.976;13.720;2023-09-18T04:21:54;7.47;;;4.75;;
34982;SDS011;21187;50.976;13.720;2023-09-18T04:26:57;6.93;;;4.38;;
34982;SDS011;21187;50.976;13.720;2023-09-18T04:31:59;6.72;;;4.20;;
34982;SDS011;21187;50.976;13.720;2023-09-18T04:37:02;9.57;;;4.05;;
34982;SDS011;21187;50.976;13.720;2023-09-18T04:42:05;7.40;;;4.68;;
34982;SDS011;21187;50.976;13.720;2023-09-18T04:47:08;10.00;;;4.57;;
34982;SDS011;21187;50.976;13.720;2023-09-18T04:52:11;8.70;;;4.60;;
34982;SDS011;21187;50.976;13.720;2023-09-18T04:57:13;6.28;;;4.00;;
34982;SDS011;21187;50.976;13.720;2023-09-18T05:02:16;6.55;;;4.30;;
34982;SDS011;21187;50.976;13.720;2023-09-18T05:07:18;6.38;;;4.28;;
34982;SDS011;21187;50.976;13.720;2023-09-18T05:12:20;6.97;;;4.25;;
34982;SDS011;21187;50.976;13.720;2023-09-18T05:17:27;7.72;;;4.30;;
34982;SDS011;21187;50.976;13.720;2023-09-18T05:22:54;5.77;;;3.87;;
34982;SDS011;21187;50.976;13.720;2023-09-18T05:27:57;6.97;;;4.05;;
34982;SDS011;21187;50.976;13.720;2023-09-18T05:33:01;7.07;;;3.95;;
34982;SDS011;21187;50.976;13.720;2023-09-18T05:38:07;7.22;;;3.67;;
34982;SDS011;21187;50.976;13.720;2023-09-18T05:43:10;6.75;;;3.72;;
34982;SDS011;21187;50.976;13.720;2023-09-18T05:48:13;6.28;;;3.88;;
34982;SDS011;21187;50.976;13.720;2023-09-18T05:53:15;6.68;;;4.20;;
34982;SDS011;21187;50.976;13.720;2023-09-18T05:58:17;5.65;;;3.83;;
34982;SDS011;21187;50.976;13.720;2023-09-18T06:03:22;11.52;;;4.57;;
34982;SDS011;21187;50.976;13.720;2023-09-18T06:08:24;8.70;;;4.53;;
34982;SDS011;21187;50.976;13.720;2023-09-18T06:13:27;10.45;;;4.45;;
34982;SDS011;21187;50.976;13.720;2023-09-18T06:18:29;11.05;;;3.95;;
34982;SDS011;21187;50.976;13.720;2023-09-18T06:23:33;6.72;;;4.63;;
34982;SDS011;21187;50.976;13.720;2023-09-18T06:28:35;6.78;;;4.28;;
34982;SDS011;21187;50.976;13.720;2023-09-18T06:33:36;9.23;;;3.75;;
34982;SDS011;21187;50.976;13.720;2023-09-18T06:38:38;7.60;;;4.65;;
34982;SDS011;21187;50.976;13.720;2023-09-18T06:43:40;8.90;;;4.28;;
34982;SDS011;21187;50.976;13.720;2023-09-18T06:48:42;6.28;;;4.20;;
34982;SDS011;21187;50.976;13.720;2023-09-18T06:53:47;5.70;;;4.38;;
34982;SDS011;21187;50.976;13.720;2023-09-18T06:58:49;6.93;;;4.35;;
34982;SDS011;21187;50.976;13.720;2023-09-18T07:03:53;7.93;;;4.70;;
34982;SDS011;21187;50.976;13.720;2023-09-18T07:08:55;6.13;;;3.72;;
34982;SDS011;21187;50.976;13.720;2023-09-18T07:13:57;8.10;;;4.43;;
34982;SDS011;21187;50.976;13.720;2023-09-18T07:18:59;11.43;;;3.90;;
34982;SDS011;21187;50.976;13.720;2023-09-18T07:24:03;4.50;;;3.70;;
34982;SDS011;21187;50.976;13.720;2023-09-18T07:29:05;6.25;;;3.80;;
34982;SDS011;21187;50.976;13.720;2023-09-18T07:34:06;5.07;;;3.58;;
34982;SDS011;21187;50.976;13.720;2023-09-18T07:39:12;6.32;;;3.50;;
34982;SDS011;21187;50.976;13.720;2023-09-18T07:44:20;8.88;;;3.60;;
34982;SDS011;21187;50.976;13.720;2023-09-18T07:49:22;7.40;;;3.65;;
34982;SDS011;21187;50.976;13.720;2023-09-18T07:54:24;8.43;;;4.30;;
34982;SDS011;21187;50.976;13.720;2023-09-18T07:59:26;5.18;;;3.88;;
34982;SDS011;21187;50.976;13.720;2023-09-18T08:04:30;8.35;;;3.58;;
34982;SDS011;21187;50.976;13.720;2023-09-18T08:09:33;3.90;;;3.22;;
34982;SDS011;21187;50.976;13.720;2023-09-18T08:14:37;6.57;;;2.90;;
34982;SDS011;21187;50.976;13.720;2023-09-18T08:19:39;8.77;;;3.10;;
34982;SDS011;21187;50.976;13.720;2023-09-18T08:24:42;8.52;;;3.10;;
34982;SDS011;21187;50.976;13.720;2023-09-18T08:29:44;4.75;;;3.10;;
34982;SDS011;21187;50.976;13.720;2023-09-18T08:34:47;3.88;;;3.03;;
34982;SDS011;21187;50.976;13.720;2023-09-18T08:39:49;8.68;;;2.85;;
34982;SDS011;21187;50.976;13.720;2023-09-18T08:44:51;3.72;;;2.97;;
34982;SDS011;21187;50.976;13.720;2023-09-18T08:49:53;5.63;;;3.40;;
34982;SDS011;21187;50.976;13.720;2023-09-18T08:54:57;8.95;;;2.97;;
34982;SDS011;21187;50.976;13.720;2023-09-18T08:59:59;4.72;;;3.10;;
34982;SDS011;21187;50.976;13.720;2023-09-18T09:05:07;5.85;;;3.15;;
34982;SDS011;21187;50.976;13.720;2023-09-18T09:10:09;5.10;;;3.88;;
34982;SDS011;21187;50.976;13.720;2023-09-18T09:15:11;5.68;;;3.28;;
34982;SDS011;21187;50.976;13.720;2023-09-18T09:20:13;4.78;;;3.15;;
34982;SDS011;21187;50.976;13.720;2023-09-18T09:30:25;4.15;;;2.97;;
34982;SDS011;21187;50.976;13.720;2023-09-18T09:35:29;4.68;;;2.65;;
34982;SDS011;21187;50.976;13.720;2023-09-18T09:40:36;4.05;;;2.63;;
34982;SDS011;21187;50.976;13.720;2023-09-18T09:45:42;7.13;;;2.90;;
34982;SDS011;21187;50.976;13.720;2023-09-18T09:50:47;3.95;;;2.63;;
34982;SDS011;21187;50.976;13.720;2023-09-18T09:55:54;3.47;;;2.50;;
34982;SDS011;21187;50.976;13.720;2023-09-18T10:00:57;3.03;;;2.30;;
34982;SDS011;21187;50.976;13.720;2023-09-18T10:06:04;3.58;;;2.42;;
34982;SDS011;21187;50.976;13.720;2023-09-18T10:11:07;4.65;;;2.60;;
34982;SDS011;21187;50.976;13.720;2023-09-18T10:16:16;4.97;;;2.45;;
34982;SDS011;21187;50.976;13.720;2023-09-18T10:21:26;3.10;;;2.33;;
34982;SDS011;21187;50.976;13.720;2023-09-18T10:26:35;2.95;;;2.00;;
34982;SDS011;21187;50.976;13.720;2023-09-18T10:31:42;3.38;;;2.00;;
34982;SDS011;21187;50.976;13.720;2023-09-18T10:36:46;5.38;;;2.42;;
34982;SDS011;21187;50.976;13.720;2023-09-18T10:41:51;6.35;;;2.50;;
34982;SDS011;21187;50.976;13.720;2023-09-18T10:46:58;8.65;;;2.70;;
34982;SDS011;21187;50.976;13.720;2023-09-18T10:52:03;7.18;;;2.65;;
34982;SDS011;21187;50.976;13.720;2023-09-18T10:57:05;4.53;;;2.88;;
34982;SDS011;21187;50.976;13.720;2023-09-18T11:02:08;5.10;;;3.00;;
34982;SDS011;21187;50.976;13.720;2023-09-18T11:07:31;4.53;;;2.97;;
34982;SDS011;21187;50.976;13.720;2023-09-18T11:12:42;9.43;;;2.97;;
34982;SDS011;21187;50.976;13.720;2023-09-18T11:17:54;4.53;;;2.50;;
34982;SDS011;21187;50.976;13.720;2023-09-18T11:23:15;5.15;;;2.72;;
34982;SDS011;21187;50.976;13.720;2023-09-18T11:28:26;8.10;;;3.10;;
34982;SDS011;21187;50.976;13.720;2023-09-18T11:33:36;6.55;;;2.85;;
34982;SDS011;21187;50.976;13.720;2023-09-18T11:38:52;4.78;;;2.60;;
34982;SDS011;21187;50.976;13.720;2023-09-18T11:49:21;5.90;;;4.32;;
34982;SDS011;21187;50.976;13.720;2023-09-18T11:54:25;8.85;;;4.00;;
34982;SDS011;21187;50.976;13.720;2023-09-18T12:00:17;4.65;;;3.55;;
34982;SDS011;21187;50.976;13.720;2023-09-18T12:11:15;5.50;;;3.65;;
34982;SDS011;21187;50.976;13.720;2023-09-18T12:16:21;6.90;;;4.00;;
34982;SDS011;21187;50.976;13.720;2023-09-18T12:21:23;7.15;;;4.25;;
34982;SDS011;21187;50.976;13.720;2023-09-18T12:26:25;20.05;;;4.50;;
34982;SDS011;21187;50.976;13.720;2023-09-18T12:31:28;7.70;;;3.42;;
34982;SDS011;21187;50.976;13.720;2023-09-18T12:36:31;5.72;;;3.60;;
34982;SDS011;21187;50.976;13.720;2023-09-18T12:41:33;5.05;;;3.63;;
34982;SDS011;21187;50.976;13.720;2023-09-18T12:46:36;9.95;;;3.70;;
34982;SDS011;21187;50.976;13.720;2023-09-18T12:51:39;4.65;;;3.55;;
34982;SDS011;21187;50.976;13.720;2023-09-18T12:56:41;8.38;;;4.13;;
34982;SDS011;21187;50.976;13.720;2023-09-18T13:01:45;5.47;;;3.35;;
34982;SDS011;21187;50.976;13.720;2023-09-18T13:07:02;3.75;;;2.42;;
34982;SDS011;21187;50.976;13.720;2023-09-18T13:12:16;8.15;;;2.78;;
34982;SDS011;21187;50.976;13.720;2023-09-18T13:17:18;6.47;;;2.65;;
34982;SDS011;21187;50.976;13.720;2023-09-18T13:22:26;5.13;;;2.58;;
34982;SDS011;21187;50.976;13.720;2023-09-18T13:27:29;5.07;;;2.55;;
34982;SDS011;21187;50.976;13.720;2023-09-18T13:32:31;6.03;;;2.33;;
34982;SDS011;21187;50.976;13.720;2023-09-18T13:37:33;4.63;;;2.67;;
34982;SDS011;21187;50.976;13.720;2023-09-18T13:42:36;8.05;;;3.25;;
34982;SDS011;21187;50.976;13.720;2023-09-18T13:47:40;7.93;;;2.67;;
34982;SDS011;21187;50.976;13.720;2023-09-18T13:52:42;11.40;;;2.63;;
34982;SDS011;21187;50.976;13.720;2023-09-18T13:57:44;10.63;;;2.80;;
34982;SDS011;21187;50.976;13.720;2023-09-18T14:02:46;5.90;;;2.70;;
34982;SDS011;21187;50.976;13.720;2023-09-18T14:07:48;6.72;;;2.80;;
34982;SDS011;21187;50.976;13.720;2023-09-18T14:12:50;8.20;;;2.80;;
34982;SDS011;21187;50.976;13.720;2023-09-18T14:17:52;7.65;;;2.67;;
34982;SDS011;21187;50.976;13.720;2023-09-18T14:22:54;12.32;;;2.63;;
34982;SDS011;21187;50.976;13.720;2023-09-18T14:27:56;7.38;;;1.80;;
34982;SDS011;21187;50.976;13.720;2023-09-18T14:32:58;9.55;;;1.80;;
34982;SDS011;21187;50.976;13.720;2023-09-18T14:38:03;2.72;;;1.30;;
34982;SDS011;21187;50.976;13.720;2023-09-18T14:43:07;6.60;;;1.52;;
34982;SDS011;21187;50.976;13.720;2023-09-18T14:48:09;6.90;;;1.40;;
34982;SDS011;21187;50.976;13.720;2023-09-18T14:53:12;8.70;;;1.23;;
34982;SDS011;21187;50.976;13.720;2023-09-18T14:58:14;4.72;;;1.67;;
34982;SDS011;21187;50.976;13.720;2023-09-18T15:03:16;8.45;;;1.80;;
34982;SDS011;21187;50.976;13.720;2023-09-18T15:08:18;7.07;;;1.88;;
34982;SDS011;21187;50.976;13.720;2023-09-18T15:13:26;7.20;;;2.15;;
34982;SDS011;21187;50.976;13.720;2023-09-18T15:18:28;6.30;;;1.60;;
34982;SDS011;21187;50.976;13.720;2023-09-18T15:23:30;3.63;;;1.23;;
34982;SDS011;21187;50.976;13.720;2023-09-18T15:28:32;6.10;;;1.45;;
34982;SDS011;21187;50.976;13.720;2023-09-18T15:33:35;0.95;;;0.70;;
34982;SDS011;21187;50.976;13.720;2023-09-18T15:38:39;2.83;;;0.93;;
34982;SDS011;21187;50.976;13.720;2023-09-18T15:43:41;1.60;;;0.90;;
34982;SDS011;21187;50.976;13.720;2023-09-18T15:48:43;9.93;;;1.00;;
34982;SDS011;21187;50.976;13.720;2023-09-18T15:53:45;5.30;;;0.80;;
34982;SDS011;21187;50.976;13.720;2023-09-18T15:58:47;3.20;;;1.00;;
34982;SDS011;21187;50.976;13.720;2023-09-18T16:03:50;4.20;;;0.77;;
34982;SDS011;21187;50.976;13.720;2023-09-18T16:08:52;6.32;;;1.27;;
34982;SDS011;21187;50.976;13.720;2023-09-18T16:13:58;5.10;;;1.10;;
34982;SDS011;21187;50.976;13.720;2023-09-18T16:19:00;4.20;;;1.00;;
34982;SDS011;21187;50.976;13.720;2023-09-18T16:24:02;6.20;;;1.10;;
34982;SDS011;21187;50.976;13.720;2023-09-18T16:29:08;4.05;;;0.80;;
34982;SDS011;21187;50.976;13.720;2023-09-18T16:34:10;10.13;;;1.20;;
34982;SDS011;21187;50.976;13.720;2023-09-18T16:39:12;1.77;;;0.98;;
34982;SDS011;21187;50.976;13.720;2023-09-18T16:44:16;3.90;;;1.13;;
34982;SDS011;21187;50.976;13.720;2023-09-18T16:49:18;4.90;;;1.13;;
34982;SDS011;21187;50.976;13.720;2023-09-18T16:54:24;7.35;;;1.35;;
34982;SDS011;21187;50.976;13.720;2023-09-18T16:59:26;4.75;;;1.30;;
34982;SDS011;21187;50.976;13.720;2023-09-18T17:04:32;11.05;;;1.65;;
34982;SDS011;21187;50.976;13.720;2023-09-18T17:09:34;5.10;;;1.42;;
34982;SDS011;21187;50.976;13.720;2023-09-18T17:14:37;6.65;;;1.65;;
34982;SDS011;21187;50.976;13.720;2023-09-18T17:19:39;4.80;;;1.33;;
34982;SDS011;21187;50.976;13.720;2023-09-18T17:24:42;9.57;;;1.95;;
34982;SDS011;21187;50.976;13.720;2023-09-18T17:29:44;5.05;;;1.52;;
34982;SDS011;21187;50.976;13.720;2023-09-18T17:34:46;7.53;;;1.92;;
34982;SDS011;21187;50.976;13.720;2023-09-18T17:39:49;8.10;;;2.03;;
34982;SDS011;21187;50.976;13.720;2023-09-18T17:44:53;4.90;;;2.13;;
34982;SDS011;21187;50.976;13.720;2023-09-18T17:49:57;5.60;;;1.50;;
34982;SDS011;21187;50.976;13.720;2023-09-18T17:54:59;10.85;;;2.00;;
34982;SDS011;21187;50.976;13.720;2023-09-18T18:00:06;6.20;;;1.95;;
34982;SDS011;21187;50.976;13.720;2023-09-18T18:05:15;13.18;;;1.90;;
34982;SDS011;21187;50.976;13.720;2023-09-18T18:10:18;7.88;;;1.60;;
34982;SDS011;21187;50.976;13.720;2023-09-18T18:15:19;4.93;;;1.50;;
34982;SDS011;21187;50.976;13.720;2023-09-18T18:20:21;3.97;;;1.13;;
34982;SDS011;21187;50.976;13.720;2023-09-18T18:25:25;1.90;;;1.20;;
34982;SDS011;21187;50.976;13.720;2023-09-18T18:30:28;7.03;;;1.38;;
34982;SDS011;21187;50.976;13.720;2023-09-18T18:35:30;4.85;;;1.05;;
34982;SDS011;21187;50.976;13.720;2023-09-18T18:40:32;3.97;;;1.35;;
34982;SDS011;21187;50.976;13.720;2023-09-18T18:45:42;4.23;;;1.30;;
34982;SDS011;21187;50.976;13.720;2023-09-18T18:50:44;3.55;;;1.30;;
34982;SDS011;21187;50.976;13.720;2023-09-18T18:55:47;6.80;;;1.80;;
34982;SDS011;21187;50.976;13.720;2023-09-18T19:00:50;4.55;;;0.77;;
34982;SDS011;21187;50.976;13.720;2023-09-18T19:05:56;3.63;;;1.17;;
34982;SDS011;21187;50.976;13.720;2023-09-18T19:11:09;3.65;;;1.02;;
34982;SDS011;21187;50.976;13.720;2023-09-18T19:16:11;2.92;;;0.90;;
34982;SDS011;21187;50.976;13.720;2023-09-18T19:21:13;4.72;;;0.90;;
34982;SDS011;21187;50.976;13.720;2023-09-18T19:26:15;3.13;;;0.68;;
34982;SDS011;21187;50.976;13.720;2023-09-18T19:31:20;3.90;;;1.00;;
34982;SDS011;21187;50.976;13.720;2023-09-18T19:36:22;1.70;;;0.93;;
34982;SDS011;21187;50.976;13.720;2023-09-18T19:41:24;5.65;;;1.05;;
34982;SDS011;21187;50.976;13.720;2023-09-18T19:46:30;1.85;;;0.80;;
34982;SDS011;21187;50.976;13.720;2023-09-18T19:51:36;2.92;;;0.75;;
34982;SDS011;21187;50.976;13.720;2023-09-18T19:56:39;5.30;;;0.70;;
34982;SDS011;21187;50.976;13.720;2023-09-18T20:01:41;1.00;;;0.70;;
34982;SDS011;21187;50.976;13.720;2023-09-18T20:06:43;1.88;;;0.73;;
34982;SDS011;21187;50.976;13.720;2023-09-18T20:11:47;1.40;;;0.88;;
34982;SDS011;21187;50.976;13.720;2023-09-18T20:16:49;3.03;;;0.82;;
34982;SDS011;21187;50.976;13.720;2023-09-18T20:21:51;5.63;;;0.77;;
34982;SDS011;21187;50.976;13.720;2023-09-18T20:26:53;2.03;;;0.65;;
34982;SDS011;21187;50.976;13.720;2023-09-18T20:31:55;1.35;;;0.70;;
34982;SDS011;21187;50.976;13.720;2023-09-18T20:36:57;8.88;;;0.88;;
34982;SDS011;21187;50.976;13.720;2023-09-18T20:41:59;1.80;;;0.98;;
34982;SDS011;21187;50.976;13.720;2023-09-18T20:47:01;2.00;;;0.90;;
34982;SDS011;21187;50.976;13.720;2023-09-18T20:52:04;4.53;;;0.98;;
34982;SDS011;21187;50.976;13.720;2023-09-18T20:57:07;1.98;;;0.75;;
34982;SDS011;21187;50.976;13.720;2023-09-18T21:02:09;1.23;;;0.60;;
34982;SDS011;21187;50.976;13.720;2023-09-18T21:07:12;1.35;;;0.50;;
34982;SDS011;21187;50.976;13.720;2023-09-18T21:12:14;4.57;;;0.60;;
34982;SDS011;21187;50.976;13.720;2023-09-18T21:17:16;0.85;;;0.65;;
34982;SDS011;21187;50.976;13.720;2023-09-18T21:22:18;4.10;;;0.90;;
34982;SDS011;21187;50.976;13.720;2023-09-18T21:27:20;3.05;;;0.57;;
34982;SDS011;21187;50.976;13.720;2023-09-18T21:32:22;0.77;;;0.40;;
34982;SDS011;21187;50.976;13.720;2023-09-18T21:37:25;5.28;;;0.70;;
34982;SDS011;21187;50.976;13.720;2023-09-18T21:42:26;2.47;;;0.75;;
34982;SDS011;21187;50.976;13.720;2023-09-18T21:47:28;4.25;;;0.68;;
34982;SDS011;21187;50.976;13.720;2023-09-18T21:52:30;3.05;;;0.80;;
34982;SDS011;21187;50.976;13.720;2023-09-18T21:57:32;2.38;;;0.60;;
34982;SDS011;21187;50.976;13.720;2023-09-18T22:02:34;2.67;;;0.70;;
34982;SDS011;21187;50.976;13.720;2023-09-18T22:07:36;2.50;;;0.77;;
34982;SDS011;21187;50.976;13.720;2023-09-18T22:12:39;2.38;;;0.85;;
34982;SDS011;21187;50.976;13.720;2023-09-18T22:17:41;4.70;;;1.10;;
34982;SDS011;21187;50.976;13.720;2023-09-18T22:22:46;1.60;;;0.90;;
34982;SDS011;21187;50.976;13.720;2023-09-18T22:27:48;6.88;;;0.90;;
34982;SDS011;21187;50.976;13.720;2023-09-18T22:32:50;2.78;;;0.60;;
34982;SDS011;21187;50.976;13.720;2023-09-18T22:37:54;3.95;;;0.85;;
34982;SDS011;21187;50.976;13.720;2023-09-18T22:59:21;1.27;;;0.63;;
34982;SDS011;21187;50.976;13.720;2023-09-18T23:04:23;1.98;;;0.70;;
34982;SDS011;21187;50.976;13.720;2023-09-18T23:09:25;2.20;;;0.60;;
34982;SDS011;21187;50.976;13.720;2023-09-18T23:14:28;1.27;;;0.85;;
34982;SDS011;21187;50.976;13.720;2023-09-18T23:19:31;3.55;;;0.60;;
34982;SDS011;21187;50.976;13.720;2023-09-18T23:24:35;3.75;;;0.73;;
34982;SDS011;21187;50.976;13.720;2023-09-18T23:29:40;1.75;;;0.80;;
34982;SDS011;21187;50.976;13.720;2023-09-18T23:34:44;2.70;;;0.90;;
34982;SDS011;21187;50.976;13.720;2023-09-18T23:39:45;7.75;;;1.00;;
34982;SDS011;21187;50.976;13.720;2023-09-18T23:44:48;3.85;;;0.80;;
34982;SDS011;21187;50.976;13.720;2023-09-18T23:49:50;2.45;;;0.75;;
34982;SDS011;21187;50.976;13.720;2023-09-18T23:54:52;5.97;;;1.13;;
34982;SDS011;21187;50.976;13.720;2023-09-18T23:59:54;5.85;;;1.25;;
